This is the latest recevied weather packets stored in our database for station/object DC1MBB-9. If no packets are shown the sender has not sent any weather packets the latest 10 day(s).
| Time | Temp. | Humidity | Pressure | Rain* | Wind** | Luminosity | Snow |
|---|---|---|---|---|---|---|---|
| 1777936236 | 18.33° C | 59% | 953 hPa | - | - | - | - |
| 1777935875 | 18.33° C | 59% | 954 hPa | - | - | - | - |
| 1777935514 | 18.33° C | 58% | 954 hPa | - | - | - | - |
| 1777935154 | 18.89° C | 55% | 954 hPa | - | - | - | - |
| 1777934793 | 18.89° C | 55% | 954 hPa | - | - | - | - |
| 1777934432 | 19.44° C | 54% | 954 hPa | - | - | - | - |
| 1777934071 | 18.89° C | 56% | 954 hPa | - | - | - | - |
| 1777933710 | 18.89° C | 55% | 954 hPa | - | - | - | - |
| 1777933350 | 19.44° C | 53% | 954 hPa | - | - | - | - |
| 1777932989 | 19.44° C | 53% | 954 hPa | - | - | - | - |
| 1777932628 | 19.44° C | 53% | 954 hPa | - | - | - | - |
| 1777932267 | 19.44° C | 54% | 954 hPa | - | - | - | - |
| 1777931907 | 19.44° C | 53% | 954 hPa | - | - | - | - |
| 1777931546 | 19.44° C | 52% | 954 hPa | - | - | - | - |
| 1777931185 | 19.44° C | 53% | 954 hPa | - | - | - | - |
| 1777930824 | 19.44° C | 54% | 954 hPa | - | - | - | - |
| 1777930464 | 20° C | 52% | 954 hPa | - | - | - | - |
| 1777930103 | 20° C | 51% | 954 hPa | - | - | - | - |
| 1777929742 | 20° C | 51% | 954 hPa | - | - | - | - |
| 1777929381 | 20° C | 51% | 955 hPa | - | - | - | - |
| 1777929020 | 20° C | 51% | 955 hPa | - | - | - | - |
| 1777928660 | 20.56° C | 50% | 955 hPa | - | - | - | - |
| 1777928299 | 20.56° C | 49% | 955 hPa | - | - | - | - |
| 1777927938 | 20° C | 50% | 955 hPa | - | - | - | - |
| 1777927577 | 20.56° C | 47% | 955 hPa | - | - | - | - |
* Rain since midnight (hover to see other rain measurements)
** Current wind speed in m/s (hover to see current wind gust speed)